createdAt,value
2022-12-26T00:01:08.738Z,10.22
2022-12-26T00:03:37.320Z,10.21
2022-12-26T00:06:13.127Z,10.13
2022-12-26T00:08:42.076Z,10.21
2022-12-26T00:11:09.696Z,10.21
2022-12-26T00:13:41.428Z,10.17
2022-12-26T00:16:11.292Z,10.12
2022-12-26T00:18:39.796Z,10.12
2022-12-26T00:21:10.540Z,10.06
2022-12-26T00:23:38.985Z,10.11
2022-12-26T00:26:09.123Z,10.09
2022-12-26T00:28:37.489Z,10.12
2022-12-26T00:31:06.222Z,10.06
2022-12-26T00:33:35.748Z,10.02
2022-12-26T00:36:05.042Z,10.04
2022-12-26T00:38:35.319Z,10.09
2022-12-26T00:41:02.966Z,10.11
2022-12-26T00:43:31.588Z,10.02
2022-12-26T00:45:59.715Z,9.96
2022-12-26T00:48:28.647Z,9.98
2022-12-26T00:50:56.695Z,9.98
2022-12-26T00:53:25.206Z,9.95
2022-12-26T00:55:54.977Z,9.82
2022-12-26T00:58:24.681Z,9.77
2022-12-26T01:00:55.338Z,9.82
2022-12-26T01:03:24.594Z,9.75
2022-12-26T01:05:52.827Z,9.48
2022-12-26T01:08:24.571Z,8.94
2022-12-26T01:10:54.422Z,8.69
2022-12-26T01:13:22.927Z,8.35
2022-12-26T01:15:51.633Z,8.14
2022-12-26T01:18:20.341Z,7.93
2022-12-26T01:20:49.894Z,7.60
2022-12-26T01:23:18.159Z,7.37
2022-12-26T01:26:15.490Z,7.10
2022-12-26T01:28:35.456Z,7.06
2022-12-26T01:31:04.138Z,6.97
2022-12-26T01:33:33.550Z,6.95
2022-12-26T01:36:01.260Z,6.95
2022-12-26T01:38:30.146Z,6.98
2022-12-26T01:41:11.700Z,7.05
2022-12-26T01:43:52.463Z,7.29
2022-12-26T01:46:23.225Z,7.29
2022-12-26T01:48:53.199Z,7.30
2022-12-26T01:51:25.866Z,7.52
2022-12-26T01:54:39.491Z,7.64
2022-12-26T01:56:47.729Z,7.51
2022-12-26T01:59:23.438Z,7.59
2022-12-26T02:01:54.574Z,7.28
2022-12-26T02:04:47.818Z,6.86
2022-12-26T02:07:15.489Z,6.70
2022-12-26T02:09:44.018Z,6.54
2022-12-26T02:12:34.934Z,6.32
2022-12-26T02:15:11.037Z,6.23
2022-12-26T02:17:38.886Z,6.17
2022-12-26T02:20:18.444Z,6.18
2022-12-26T02:23:28.522Z,6.17
2022-12-26T02:26:31.514Z,6.54
2022-12-26T02:29:25.323Z,6.86
2022-12-26T02:32:03.997Z,7.17
2022-12-26T02:34:42.112Z,7.50
2022-12-26T02:37:25.418Z,7.80
2022-12-26T02:40:04.130Z,8.02
2022-12-26T02:42:42.765Z,8.21
2022-12-26T02:45:37.855Z,8.40
2022-12-26T02:48:14.335Z,8.57
2022-12-26T02:51:18.790Z,8.62
2022-12-26T02:54:12.782Z,8.74
2022-12-26T02:57:05.324Z,8.92
2022-12-26T03:00:02.731Z,8.91
2022-12-26T03:02:53.564Z,9.03
2022-12-26T03:05:48.121Z,9.15
2022-12-26T03:08:39.583Z,9.27
2022-12-26T03:11:25.005Z,9.29
2022-12-26T03:13:55.089Z,9.12
2022-12-26T03:16:43.705Z,9.09
2022-12-26T03:19:15.050Z,9.15
2022-12-26T03:21:48.548Z,9.25
2022-12-26T03:24:18.163Z,9.30
2022-12-26T03:26:50.429Z,9.37
2022-12-26T03:29:37.818Z,9.44
2022-12-26T03:32:08.861Z,9.47
2022-12-26T03:34:41.013Z,9.31
2022-12-26T03:37:50.134Z,9.08
2022-12-26T03:40:47.974Z,8.90
2022-12-26T03:43:45.305Z,8.77
2022-12-26T03:46:38.175Z,8.83
2022-12-26T03:49:28.307Z,8.66
2022-12-26T03:52:20.482Z,8.68
2022-12-26T03:55:15.223Z,8.70
2022-12-26T03:58:09.021Z,8.77
2022-12-26T04:00:59.185Z,8.94
2022-12-26T04:03:48.040Z,9.14
2022-12-26T04:06:38.350Z,9.08
2022-12-26T04:09:29.169Z,9.35
2022-12-26T04:12:17.652Z,9.34
2022-12-26T04:15:08.670Z,9.33
2022-12-26T04:17:59.584Z,9.37
2022-12-26T04:20:34.203Z,9.36
2022-12-26T04:23:28.050Z,9.36
2022-12-26T04:26:21.765Z,9.35
2022-12-26T04:29:08.589Z,9.36
2022-12-26T04:32:02.762Z,9.43
2022-12-26T04:34:57.952Z,9.42
2022-12-26T04:37:47.786Z,9.43
2022-12-26T04:40:37.568Z,9.44
2022-12-26T04:43:50.114Z,9.49
2022-12-26T04:46:15.068Z,9.47
2022-12-26T04:49:01.956Z,9.42
2022-12-26T04:51:30.275Z,9.46
2022-12-26T04:53:57.980Z,9.38
2022-12-26T04:56:26.209Z,9.31
2022-12-26T04:58:53.789Z,9.26
2022-12-26T05:01:40.515Z,9.15
2022-12-26T05:04:31.434Z,9.22
2022-12-26T05:07:17.423Z,9.30
2022-12-26T05:09:45.167Z,8.95
2022-12-26T05:12:13.227Z,9.09
2022-12-26T05:14:40.872Z,9.01
2022-12-26T05:17:31.284Z,9.06
2022-12-26T05:20:17.456Z,9.08
2022-12-26T05:23:05.876Z,8.97
2022-12-26T05:25:54.010Z,9.02
2022-12-26T05:28:40.131Z,9.12
2022-12-26T05:31:08.105Z,8.99
2022-12-26T05:33:55.093Z,9.07
2022-12-26T05:36:26.097Z,9.16
2022-12-26T05:38:56.364Z,9.05
2022-12-26T05:41:24.943Z,9.34
2022-12-26T05:43:53.160Z,9.27
2022-12-26T05:46:20.800Z,9.31
2022-12-26T05:48:50.426Z,9.33
2022-12-26T05:51:18.230Z,9.30
2022-12-26T05:53:46.364Z,9.37
2022-12-26T05:56:16.553Z,9.43
2022-12-26T05:58:45.035Z,9.57
2022-12-26T06:01:14.619Z,9.56
2022-12-26T06:03:44.484Z,9.48
2022-12-26T06:06:13.495Z,9.47
2022-12-26T06:08:42.205Z,9.39
2022-12-26T06:11:12.237Z,9.24
2022-12-26T06:13:41.528Z,9.18
2022-12-26T06:16:10.884Z,9.15
2022-12-26T06:18:39.995Z,9.08
2022-12-26T06:21:09.397Z,9.29
2022-12-26T06:23:39.548Z,9.32
2022-12-26T06:26:09.546Z,9.33
2022-12-26T06:28:37.624Z,9.46
2022-12-26T06:31:06.338Z,9.59
2022-12-26T06:33:35.353Z,9.63
2022-12-26T06:36:04.898Z,9.66
2022-12-26T06:38:33.329Z,9.66
2022-12-26T06:41:02.373Z,9.63
2022-12-26T06:43:30.715Z,9.65
2022-12-26T06:45:59.272Z,9.71
2022-12-26T06:48:28.237Z,9.77
2022-12-26T06:50:56.119Z,9.77
2022-12-26T06:53:25.177Z,9.76
2022-12-26T06:55:53.370Z,9.71
2022-12-26T06:58:22.625Z,9.59
2022-12-26T07:00:50.251Z,9.44
2022-12-26T07:03:19.260Z,9.35
2022-12-26T07:05:46.848Z,9.19
2022-12-26T07:08:14.993Z,9.15
2022-12-26T07:10:42.603Z,9.28
2022-12-26T07:13:10.553Z,9.11
2022-12-26T07:15:39.655Z,9.13
2022-12-26T07:18:07.259Z,9.09
2022-12-26T07:20:35.158Z,9.16
2022-12-26T07:23:03.030Z,9.08
2022-12-26T07:25:30.617Z,9.20
2022-12-26T07:27:58.220Z,9.26
2022-12-26T07:30:26.004Z,9.56
2022-12-26T07:32:55.042Z,9.71
2022-12-26T07:35:23.401Z,9.84
2022-12-26T07:37:50.976Z,10.09
2022-12-26T07:40:18.753Z,10.38
2022-12-26T07:42:46.387Z,10.37
2022-12-26T07:45:14.890Z,10.59
2022-12-26T07:47:42.775Z,10.71
2022-12-26T07:50:12.166Z,10.90
2022-12-26T07:52:39.750Z,10.91
2022-12-26T07:55:08.805Z,10.97
2022-12-26T07:57:48.701Z,11.06
2022-12-26T08:00:19.020Z,11.05
2022-12-26T08:02:48.892Z,11.18
2022-12-26T08:05:21.125Z,11.42
2022-12-26T08:07:49.732Z,11.49
2022-12-26T08:10:17.940Z,11.61
2022-12-26T08:12:45.581Z,11.69
2022-12-26T08:15:13.695Z,11.80
2022-12-26T08:17:41.420Z,11.82
2022-12-26T08:20:10.191Z,11.65
2022-12-26T08:22:39.136Z,11.68
2022-12-26T08:25:08.251Z,11.74
2022-12-26T08:27:35.922Z,11.97
2022-12-26T08:30:05.212Z,12.01
2022-12-26T08:32:32.855Z,12.28
2022-12-26T08:35:01.104Z,12.29
2022-12-26T08:37:28.730Z,12.44
2022-12-26T08:39:58.274Z,12.55
2022-12-26T08:42:25.851Z,13.02
2022-12-26T08:44:53.687Z,13.50
2022-12-26T08:47:21.943Z,13.56
2022-12-26T08:49:50.062Z,14.13
2022-12-26T08:52:17.639Z,14.67
2022-12-26T08:54:45.614Z,15.41
2022-12-26T08:57:15.522Z,15.41
2022-12-26T08:59:43.411Z,15.38
2022-12-26T09:02:12.070Z,15.59
2022-12-26T09:04:40.052Z,15.37
2022-12-26T09:07:09.081Z,16.22
2022-12-26T09:09:37.049Z,15.82
2022-12-26T09:12:05.098Z,16.22
2022-12-26T09:14:34.462Z,16.81
2022-12-26T09:17:02.217Z,16.73
2022-12-26T09:19:32.373Z,16.66
2022-12-26T09:22:14.269Z,17.09
2022-12-26T09:24:42.258Z,17.50
2022-12-26T09:27:10.063Z,16.86
2022-12-26T09:29:39.275Z,16.23
2022-12-26T09:32:07.881Z,16.42
2022-12-26T09:34:35.670Z,16.51
2022-12-26T09:37:03.579Z,16.73
2022-12-26T09:39:32.110Z,17.63
2022-12-26T09:42:09.619Z,18.21
2022-12-26T09:44:49.297Z,18.15
2022-12-26T09:47:30.886Z,17.60
2022-12-26T09:50:02.220Z,18.15
2022-12-26T09:52:44.343Z,19.15
2022-12-26T09:55:27.437Z,19.72
2022-12-26T09:58:00.835Z,19.59
2022-12-26T10:00:38.283Z,20.00
2022-12-26T10:03:08.125Z,20.09
2022-12-26T10:05:42.030Z,20.02
2022-12-26T10:08:23.279Z,20.24
2022-12-26T10:10:59.558Z,19.93
2022-12-26T10:13:35.577Z,20.04
2022-12-26T10:16:12.404Z,18.99
2022-12-26T10:18:53.521Z,17.82
2022-12-26T10:21:48.310Z,16.74
2022-12-26T10:24:19.361Z,15.78
2022-12-26T10:26:50.775Z,16.87
2022-12-26T10:29:24.489Z,16.25
2022-12-26T10:31:57.734Z,16.56
2022-12-26T10:34:29.859Z,15.60
2022-12-26T10:37:02.425Z,14.90
2022-12-26T10:39:36.920Z,14.98
2022-12-26T10:42:13.095Z,14.73
2022-12-26T10:44:41.263Z,14.24
2022-12-26T10:47:25.177Z,13.85
2022-12-26T10:49:53.658Z,13.64
2022-12-26T10:52:27.859Z,13.60
2022-12-26T10:55:27.116Z,13.55
2022-12-26T10:57:50.206Z,13.00
2022-12-26T11:00:21.107Z,12.91
2022-12-26T11:03:04.573Z,12.74
2022-12-26T11:06:05.963Z,12.80
2022-12-26T11:08:26.611Z,12.76
2022-12-26T11:11:05.423Z,12.65
2022-12-26T11:13:38.554Z,12.44
2022-12-26T11:16:07.930Z,12.66
2022-12-26T11:18:40.001Z,12.49
2022-12-26T11:21:20.697Z,12.32
2022-12-26T11:23:49.565Z,12.52
2022-12-26T11:26:23.911Z,12.36
2022-12-26T11:29:07.529Z,12.61
2022-12-26T11:31:35.258Z,12.68
2022-12-26T11:34:09.920Z,12.51
2022-12-26T11:36:45.573Z,12.51
2022-12-26T11:39:24.380Z,12.42
2022-12-26T11:41:53.358Z,12.20
2022-12-26T11:44:27.378Z,11.84
2022-12-26T11:47:00.069Z,11.89
2022-12-26T11:49:34.483Z,11.60
2022-12-26T11:52:23.850Z,11.52
2022-12-26T11:54:52.124Z,11.57
2022-12-26T11:57:22.275Z,11.17
2022-12-26T11:59:52.675Z,11.03
2022-12-26T12:02:27.367Z,11.10
2022-12-26T12:05:01.354Z,11.19
2022-12-26T12:07:43.368Z,11.43
2022-12-26T12:10:34.914Z,11.40
2022-12-26T12:13:11.328Z,11.20
2022-12-26T12:15:45.950Z,11.19
2022-12-26T12:18:21.392Z,11.49
2022-12-26T12:21:04.675Z,11.37
2022-12-26T12:23:48.123Z,11.39
2022-12-26T12:26:20.954Z,11.29
2022-12-26T12:29:09.231Z,11.38
2022-12-26T12:31:49.804Z,11.19
2022-12-26T12:34:28.709Z,11.17
2022-12-26T12:37:12.462Z,10.86
2022-12-26T12:39:56.026Z,10.97
2022-12-26T12:42:34.555Z,11.00
2022-12-26T12:45:26.965Z,10.96
2022-12-26T12:48:05.943Z,10.91
2022-12-26T12:50:41.736Z,10.74
2022-12-26T12:56:14.530Z,10.77
2022-12-26T12:58:52.706Z,10.63
2022-12-26T13:01:24.211Z,10.85
2022-12-26T13:03:57.436Z,10.64
2022-12-26T13:06:31.637Z,10.36
2022-12-26T13:09:03.947Z,10.21
2022-12-26T13:11:38.955Z,10.49
2022-12-26T13:14:12.947Z,10.40
2022-12-26T13:16:46.303Z,10.47
2022-12-26T13:19:19.610Z,10.40
2022-12-26T13:21:49.619Z,10.64
2022-12-26T13:24:26.466Z,10.82
2022-12-26T13:26:59.688Z,10.80
2022-12-26T13:29:37.540Z,10.90
2022-12-26T13:32:15.397Z,10.87
2022-12-26T13:34:45.343Z,10.88
2022-12-26T13:37:46.401Z,11.12
2022-12-26T13:40:19.036Z,11.17
2022-12-26T13:43:09.829Z,11.11
2022-12-26T13:45:52.688Z,10.59
2022-12-26T13:48:58.383Z,10.80
2022-12-26T13:51:50.986Z,10.83
2022-12-26T13:54:20.861Z,10.94
2022-12-26T13:57:27.298Z,10.79
2022-12-26T14:00:19.185Z,10.83
2022-12-26T14:03:24.930Z,10.97
2022-12-26T14:06:12.226Z,10.86
2022-12-26T14:08:55.278Z,10.87
2022-12-26T14:11:49.705Z,10.69
2022-12-26T14:14:29.206Z,10.80
2022-12-26T14:17:14.068Z,10.69
2022-12-26T14:19:50.698Z,10.77
2022-12-26T14:22:25.970Z,10.86
2022-12-26T14:25:04.166Z,10.93
2022-12-26T14:27:38.732Z,10.98
2022-12-26T14:30:19.917Z,10.93
2022-12-26T14:33:01.972Z,10.76
2022-12-26T14:35:35.340Z,10.85
2022-12-26T14:38:19.849Z,10.87
2022-12-26T14:41:00.924Z,10.79
2022-12-26T14:43:36.498Z,10.82
2022-12-26T14:46:09.773Z,10.71
2022-12-26T14:48:49.613Z,10.48
2022-12-26T14:51:48.915Z,10.65
2022-12-26T14:54:38.337Z,10.87
2022-12-26T14:57:47.099Z,10.60
2022-12-26T15:00:33.700Z,10.69
2022-12-26T15:03:32.093Z,10.71
2022-12-26T15:06:29.502Z,10.72
2022-12-26T15:09:11.648Z,10.62
2022-12-26T15:11:58.583Z,10.63
2022-12-26T15:15:17.839Z,10.64
2022-12-26T15:17:57.345Z,10.54
2022-12-26T15:21:17.829Z,10.53
2022-12-26T15:24:10.085Z,10.46
2022-12-26T15:27:02.232Z,10.44
2022-12-26T15:29:53.428Z,10.35
2022-12-26T15:32:31.989Z,10.42
2022-12-26T15:35:12.602Z,10.37
2022-12-26T15:37:57.268Z,10.22
2022-12-26T15:40:28.085Z,10.38
2022-12-26T15:43:17.082Z,10.29
2022-12-26T15:45:50.286Z,10.26
2022-12-26T15:48:34.267Z,10.29
2022-12-26T15:51:06.801Z,10.39
2022-12-26T15:53:48.332Z,10.20
2022-12-26T15:56:40.423Z,10.20
2022-12-26T15:59:44.747Z,10.23
2022-12-26T16:02:15.176Z,10.37
2022-12-26T16:04:48.911Z,10.32
2022-12-26T16:07:28.614Z,10.13
2022-12-26T16:09:58.106Z,10.10
2022-12-26T16:12:28.199Z,10.09
2022-12-26T16:15:14.556Z,10.11
2022-12-26T16:17:43.862Z,10.13
2022-12-26T16:20:40.057Z,10.12
2022-12-26T16:23:07.405Z,10.10
2022-12-26T16:25:38.112Z,10.10
2022-12-26T16:28:06.679Z,10.08
2022-12-26T16:30:37.912Z,10.12
2022-12-26T16:33:07.270Z,9.89
2022-12-26T16:35:38.775Z,10.04
2022-12-26T16:38:09.143Z,9.97
2022-12-26T16:40:44.378Z,9.95
2022-12-26T16:43:25.867Z,10.11
2022-12-26T16:45:56.295Z,10.02
2022-12-26T16:48:26.636Z,10.02
2022-12-26T16:50:56.629Z,10.02
2022-12-26T16:53:26.559Z,10.09
2022-12-26T16:56:00.849Z,10.02
2022-12-26T16:58:32.231Z,9.92
2022-12-26T17:01:07.582Z,9.98
2022-12-26T17:03:39.887Z,9.89
2022-12-26T17:06:15.053Z,9.92
2022-12-26T17:08:46.482Z,9.93
2022-12-26T17:11:15.906Z,9.94
2022-12-26T17:13:51.247Z,9.87
2022-12-26T17:16:19.207Z,10.00
2022-12-26T17:18:52.468Z,9.95
2022-12-26T17:21:28.806Z,10.15
2022-12-26T17:24:12.755Z,9.93
2022-12-26T17:26:43.582Z,10.08
2022-12-26T17:29:44.862Z,10.03
2022-12-26T17:32:15.748Z,9.96
2022-12-26T17:34:43.649Z,9.94
2022-12-26T17:37:20.250Z,9.93
2022-12-26T17:39:54.967Z,10.02
2022-12-26T17:42:27.375Z,9.96
2022-12-26T17:44:56.807Z,9.81
2022-12-26T17:47:28.642Z,9.70
2022-12-26T17:49:57.413Z,9.88
2022-12-26T17:52:28.280Z,9.81
2022-12-26T17:54:57.829Z,9.67
2022-12-26T17:57:30.480Z,9.72
2022-12-26T17:59:58.475Z,9.66
2022-12-26T18:02:26.630Z,9.66
2022-12-26T18:04:55.836Z,9.85
2022-12-26T18:07:32.245Z,9.81
2022-12-26T18:10:00.398Z,9.79
2022-12-26T18:12:29.943Z,9.96
2022-12-26T18:15:02.095Z,9.75
2022-12-26T18:17:32.927Z,9.82
2022-12-26T18:20:00.561Z,9.93
2022-12-26T18:22:28.738Z,9.79
2022-12-26T18:24:56.348Z,9.77
2022-12-26T18:27:30.381Z,9.79
2022-12-26T18:29:59.853Z,9.86
2022-12-26T18:32:30.417Z,9.91
2022-12-26T18:34:59.279Z,9.87
2022-12-26T18:37:29.019Z,9.84
2022-12-26T18:39:56.984Z,9.82
2022-12-26T18:42:25.200Z,9.78
2022-12-26T18:44:53.388Z,9.94
2022-12-26T18:47:23.449Z,9.89
2022-12-26T18:49:51.951Z,9.88
2022-12-26T18:52:19.645Z,9.81
2022-12-26T18:54:48.886Z,9.90
2022-12-26T18:57:21.196Z,9.85
2022-12-26T18:59:49.562Z,9.87
2022-12-26T19:02:18.605Z,10.03
2022-12-26T19:04:48.919Z,9.88
2022-12-26T19:07:17.998Z,9.91
2022-12-26T19:09:46.524Z,9.97
2022-12-26T19:12:14.994Z,9.93
2022-12-26T19:14:43.021Z,9.82
2022-12-26T19:17:10.627Z,9.75
2022-12-26T19:19:38.267Z,9.82
2022-12-26T19:22:07.397Z,9.76
2022-12-26T19:24:35.309Z,9.84
2022-12-26T19:27:02.964Z,9.96
2022-12-26T19:29:31.160Z,9.95
2022-12-26T19:31:58.820Z,9.91
2022-12-26T19:34:27.032Z,9.86
2022-12-26T19:36:54.627Z,9.91
2022-12-26T19:39:24.228Z,9.69
2022-12-26T19:41:51.824Z,9.66
2022-12-26T19:44:20.193Z,9.84
2022-12-26T19:46:47.867Z,9.81
2022-12-26T19:49:16.379Z,9.72
2022-12-26T19:51:43.990Z,9.82
2022-12-26T19:54:12.418Z,9.81
2022-12-26T19:56:41.789Z,9.88
2022-12-26T19:59:09.723Z,9.93
2022-12-26T20:01:37.488Z,9.78
2022-12-26T20:04:06.959Z,9.93
2022-12-26T20:06:37.323Z,9.88
2022-12-26T20:09:07.185Z,10.02
2022-12-26T20:11:37.358Z,10.13
2022-12-26T20:14:08.843Z,10.13
2022-12-26T20:19:25.601Z,9.74
2022-12-26T20:21:54.014Z,9.78
2022-12-26T20:24:23.252Z,9.63
2022-12-26T20:26:51.428Z,9.57
2022-12-26T20:29:21.028Z,9.60
2022-12-26T20:31:54.982Z,9.40
2022-12-26T20:34:23.492Z,8.74
2022-12-26T20:36:51.137Z,8.12
2022-12-26T20:39:20.340Z,7.75
2022-12-26T20:41:48.025Z,6.91
2022-12-26T20:44:16.862Z,6.15
2022-12-26T20:46:46.604Z,6.05
2022-12-26T20:49:14.478Z,5.96
2022-12-26T20:51:44.014Z,5.87
2022-12-26T20:54:13.540Z,6.12
2022-12-26T20:56:41.929Z,6.24
2022-12-26T20:59:09.838Z,6.35
2022-12-26T21:01:40.163Z,6.41
2022-12-26T21:04:09.721Z,6.64
2022-12-26T21:06:40.039Z,6.61
2022-12-26T21:09:07.891Z,6.88
2022-12-26T21:11:38.894Z,7.01
2022-12-26T21:14:09.334Z,7.03
2022-12-26T21:16:39.455Z,7.06
2022-12-26T21:19:15.075Z,6.95
2022-12-26T21:21:44.578Z,7.16
2022-12-26T21:24:14.676Z,7.10
2022-12-26T21:26:44.086Z,7.53
2022-12-26T21:29:14.715Z,7.40
2022-12-26T21:31:42.851Z,7.59
2022-12-26T21:34:14.514Z,7.69
2022-12-26T21:37:04.121Z,7.80
2022-12-26T21:39:32.183Z,7.53
2022-12-26T21:42:00.181Z,7.60
2022-12-26T21:44:27.810Z,7.80
2022-12-26T21:46:55.708Z,7.83
2022-12-26T21:49:24.656Z,7.99
2022-12-26T21:51:52.253Z,8.10
2022-12-26T21:54:37.574Z,8.08
2022-12-26T21:57:05.606Z,8.06
2022-12-26T21:59:50.763Z,7.90
2022-12-26T22:02:32.912Z,7.78
2022-12-26T22:05:02.667Z,7.90
2022-12-26T22:07:31.018Z,8.03
2022-12-26T22:09:58.656Z,7.99
2022-12-26T22:12:44.421Z,8.16
2022-12-26T22:15:26.440Z,8.11
2022-12-26T22:17:54.464Z,7.98
2022-12-26T22:20:23.603Z,8.00
2022-12-26T22:22:51.698Z,7.79
2022-12-26T22:25:19.854Z,8.03
2022-12-26T22:27:48.192Z,8.02
2022-12-26T22:30:15.782Z,7.86
2022-12-26T22:32:43.388Z,7.86
2022-12-26T22:35:18.175Z,7.83
2022-12-26T22:37:48.135Z,7.85
2022-12-26T22:40:15.969Z,7.82
2022-12-26T22:42:43.922Z,7.84
2022-12-26T22:45:11.848Z,7.81
2022-12-26T22:47:39.446Z,7.83
2022-12-26T22:50:07.809Z,7.84
2022-12-26T22:52:35.863Z,7.98
2022-12-26T22:55:05.325Z,8.00
2022-12-26T22:57:33.604Z,8.08
2022-12-26T23:00:10.113Z,7.98
2022-12-26T23:02:38.703Z,8.04
2022-12-26T23:05:07.624Z,8.01
2022-12-26T23:07:36.043Z,8.05
2022-12-26T23:10:06.364Z,7.98
2022-12-26T23:12:46.942Z,7.90
2022-12-26T23:15:17.441Z,8.06
2022-12-26T23:18:08.050Z,7.95
2022-12-26T23:20:55.242Z,7.70
2022-12-26T23:23:24.274Z,7.70
2022-12-26T23:25:53.216Z,7.76
2022-12-26T23:28:38.706Z,7.82
2022-12-26T23:31:06.334Z,7.80
2022-12-26T23:33:34.329Z,7.64
2022-12-26T23:36:02.346Z,7.75
2022-12-26T23:38:30.827Z,7.56
2022-12-26T23:41:00.519Z,7.63
2022-12-26T23:43:28.795Z,7.54
2022-12-26T23:45:56.398Z,7.65
2022-12-26T23:48:25.064Z,7.60
2022-12-26T23:51:02.120Z,7.46
2022-12-26T23:53:31.054Z,7.44
2022-12-26T23:56:00.155Z,7.31
2022-12-26T23:58:28.179Z,7.44
